Archival Weather

Agadez

Agadez, Niger (DRZA)

Report from: Thursday, September 21, 2023 6:00 AM WAT
Current time: Friday, February 23, 2024 8:42 PM WAT

Current weather – Weather history – Daily summaries
Weather forecast

Temperature25.0°C (77.0°F)
Dew point22.0°C (71.6°F)
Winds 6 kts (3.1 m/s, 6.9 mph) South (180°)
Clouds Sky clear
Altimeter29.88 in.Hg (1012 mB)
Relative humidity83 %
Density altitude1,556 ft. (474 m)
Remarks Ceiling and visibility OK
Flight conditions Visual Meteorological Conditions
Raw dataDRZA 210500Z 18006KT CAVOK 25/22 Q1012
An error has occurred. This application may no longer respond until reloaded. Reload 🗙